Time;durP1;ratioP1;P1;durP2;ratioP2;P2;SDS_P1;SDS_P2;PMS_P1;PMS_P2;Temp;Humidity;BMP_temperature;BMP_pressure;BME280_temperature;BME280_humidity;BME280_pressure;Samples;Min_cycle;Max_cycle;Signal;HPM_P1;HPM_P2
2021/09/01 00:02:32;;;;;;;1.13;0.60;;;;;;;;;;8189743;28;20072;-78
2021/09/01 00:06:37;;;;;;;1.35;0.88;;;;;;;;;;8183591;28;20686;-78
2021/09/01 00:10:43;;;;;;;3.20;0.73;;;;;;;;;;8194854;28;20538;-78
2021/09/01 00:14:48;;;;;;;1.27;1.00;;;;;;;;;;8192430;28;20042;-77
2021/09/01 00:18:59;;;;;;;0.60;0.50;;;;;;;;;;8189763;28;20500;-77
2021/09/01 00:23:04;;;;;;;1.58;0.60;;;;;;;;;;8192321;28;20114;-77
2021/09/01 00:27:10;;;;;;;2.63;0.70;;;;;;;;;;8221825;28;20518;-77
2021/09/01 00:31:18;;;;;;;0.65;0.60;;;;;;;;;;8227219;28;20518;-77
2021/09/01 00:35:23;;;;;;;1.10;0.63;;;;;;;;;;8206825;28;20484;-78
2021/09/01 00:39:28;;;;;;;0.95;0.60;;;;;;;;;;8223332;28;20372;-78
2021/09/01 00:43:33;;;;;;;1.33;0.77;;;;;;;;;;8206163;28;20372;-76
2021/09/01 00:47:39;;;;;;;3.38;0.90;;;;;;;;;;8225234;28;20448;-77
2021/09/01 00:51:51;;;;;;;1.00;0.80;;;;;;;;;;8223742;28;20057;-78
2021/09/01 00:55:57;;;;;;;2.67;0.85;;;;;;;;;;8238610;28;20380;-77
2021/09/01 01:00:03;;;;;;;1.52;0.90;;;;;;;;;;8223819;28;20419;-76
2021/09/01 01:04:08;;;;;;;1.35;0.80;;;;;;;;;;8224102;28;20045;-77
2021/09/01 01:08:14;;;;;;;1.10;0.80;;;;;;;;;;8224687;28;20057;-77
2021/09/01 01:12:21;;;;;;;1.30;0.90;;;;;;;;;;8190284;28;20713;-76
2021/09/01 01:16:28;;;;;;;2.65;1.00;;;;;;;;;;8224224;28;20460;-76
2021/09/01 01:20:33;;;;;;;2.20;1.42;;;;;;;;;;8224318;28;20345;-76
2021/09/01 01:24:59;;;;;;;1.73;1.10;;;;;;;;;;8224052;28;20049;-77
2021/09/01 01:29:09;;;;;;;1.80;1.17;;;;;;;;;;8222985;28;20072;-76
2021/09/01 01:33:15;;;;;;;1.25;1.00;;;;;;;;;;8211584;28;20375;-76
2021/09/01 01:37:20;;;;;;;1.00;0.90;;;;;;;;;;8212283;28;20506;-77
2021/09/01 01:41:25;;;;;;;1.92;1.00;;;;;;;;;;8232078;28;20060;-76
2021/09/01 01:45:44;;;;;;;1.83;1.13;;;;;;;;;;8229232;28;20409;-77
2021/09/01 01:49:49;;;;;;;1.75;1.13;;;;;;;;;;8228567;28;20395;-76
2021/09/01 01:53:55;;;;;;;2.42;0.90;;;;;;;;;;8211756;28;20353;-76
2021/09/01 01:58:00;;;;;;;1.83;0.90;;;;;;;;;;8230429;28;20041;-76
2021/09/01 02:02:05;;;;;;;1.58;1.10;;;;;;;;;;8232395;28;20484;-76
2021/09/01 02:06:11;;;;;;;1.33;1.00;;;;;;;;;;8230323;28;20403;-77
2021/09/01 02:10:16;;;;;;;1.90;1.35;;;;;;;;;;8228587;28;20511;-75
2021/09/01 02:14:21;;;;;;;1.10;0.90;;;;;;;;;;8228327;28;20375;-77
2021/09/01 02:18:27;;;;;;;3.10;1.40;;;;;;;;;;8228648;28;20345;-76
2021/09/01 02:22:33;;;;;;;1.65;1.00;;;;;;;;;;8228662;28;20372;-76
2021/09/01 02:26:37;;;;;;;2.40;1.20;;;;;;;;;;8228168;28;20061;-76
2021/09/01 02:30:43;;;;;;;1.63;1.25;;;;;;;;;;8230047;28;20506;-76
2021/09/01 02:34:48;;;;;;;1.83;1.13;;;;;;;;;;8227295;28;20491;-77
2021/09/01 02:38:53;;;;;;;3.30;1.20;;;;;;;;;;8227667;28;20037;-76
2021/09/01 02:42:58;;;;;;;3.25;1.30;;;;;;;;;;8225529;28;20053;-77
2021/09/01 02:47:03;;;;;;;2.20;1.30;;;;;;;;;;8242546;28;20046;-76
2021/09/01 02:51:09;;;;;;;1.35;1.00;;;;;;;;;;8226565;28;20504;-77
2021/09/01 02:55:14;;;;;;;1.40;1.00;;;;;;;;;;8229795;28;20376;-76
2021/09/01 02:59:19;;;;;;;1.52;1.17;;;;;;;;;;8228266;28;20475;-78
2021/09/01 03:03:25;;;;;;;1.50;0.82;;;;;;;;;;8229335;28;20464;-77
2021/09/01 03:07:31;;;;;;;1.90;0.93;;;;;;;;;;8226747;28;20049;-76
2021/09/01 03:11:36;;;;;;;2.22;0.85;;;;;;;;;;8227697;28;20344;-77
2021/09/01 03:15:42;;;;;;;4.93;0.90;;;;;;;;;;8228456;28;20357;-76
2021/09/01 03:19:47;;;;;;;1.10;0.90;;;;;;;;;;8225852;28;20069;-76
2021/09/01 03:23:52;;;;;;;1.30;0.90;;;;;;;;;;8224792;28;20372;-76
2021/09/01 03:27:56;;;;;;;0.93;0.80;;;;;;;;;;8209911;28;20380;-77
2021/09/01 03:32:01;;;;;;;3.67;1.00;;;;;;;;;;8225920;28;20353;-77
2021/09/01 03:36:06;;;;;;;2.45;0.82;;;;;;;;;;8226067;28;20486;-76
2021/09/01 03:40:12;;;;;;;0.95;0.68;;;;;;;;;;8207965;28;20388;-76
2021/09/01 03:44:17;;;;;;;1.55;1.00;;;;;;;;;;8208732;28;20488;-76
2021/09/01 03:48:23;;;;;;;1.55;1.10;;;;;;;;;;8226070;28;20502;-75
2021/09/01 03:52:28;;;;;;;3.75;1.48;;;;;;;;;;8225416;28;20480;-76
2021/09/01 03:56:33;;;;;;;1.08;0.98;;;;;;;;;;8240152;28;20410;-76
2021/09/01 04:00:42;;;;;;;2.20;1.30;;;;;;;;;;8223912;28;20380;-75
2021/09/01 04:04:48;;;;;;;3.50;2.05;;;;;;;;;;8238511;28;20076;-76
2021/09/01 04:08:53;;;;;;;2.88;1.90;;;;;;;;;;8224971;28;20407;-76
2021/09/01 04:12:58;;;;;;;4.05;2.30;;;;;;;;;;8223703;28;20483;-75
2021/09/01 04:17:04;;;;;;;3.58;2.40;;;;;;;;;;8224300;28;20510;-76
2021/09/01 04:21:09;;;;;;;5.88;2.80;;;;;;;;;;8224795;28;20498;-76
2021/09/01 04:25:14;;;;;;;11.30;3.00;;;;;;;;;;8224444;28;20412;-76
2021/09/01 04:29:19;;;;;;;5.68;2.83;;;;;;;;;;8225528;28;20057;-76
2021/09/01 04:33:24;;;;;;;5.00;2.83;;;;;;;;;;8207253;28;20418;-76
2021/09/01 04:37:30;;;;;;;5.13;2.90;;;;;;;;;;8207417;28;20064;-76
2021/09/01 04:41:35;;;;;;;3.05;2.30;;;;;;;;;;8224242;28;20448;-76
2021/09/01 04:45:40;;;;;;;4.32;2.47;;;;;;;;;;8223185;28;20071;-76
2021/09/01 04:49:45;;;;;;;2.53;2.03;;;;;;;;;;8207453;28;20475;-77
2021/09/01 04:53:50;;;;;;;3.05;2.30;;;;;;;;;;8223605;28;20072;-77
2021/09/01 04:57:55;;;;;;;3.25;1.90;;;;;;;;;;8223377;28;20352;-77
2021/09/01 05:02:01;;;;;;;3.78;2.08;;;;;;;;;;8224797;28;20372;-76
2021/09/01 05:06:06;;;;;;;4.78;2.30;;;;;;;;;;8227452;28;20346;-76
2021/09/01 05:10:12;;;;;;;4.88;2.33;;;;;;;;;;8231759;28;20072;-76
2021/09/01 05:14:18;;;;;;;4.75;2.25;;;;;;;;;;8229911;28;20496;-75
2021/09/01 05:18:23;;;;;;;3.90;1.77;;;;;;;;;;8230940;28;20334;-76
2021/09/01 05:22:31;;;;;;;5.60;2.45;;;;;;;;;;8231105;28;20067;-78
2021/09/01 05:26:38;;;;;;;3.97;2.50;;;;;;;;;;8231893;28;20553;-78
2021/09/01 05:30:47;;;;;;;1.83;1.45;;;;;;;;;;8213510;28;20065;-75
2021/09/01 05:34:59;;;;;;;2.88;1.92;;;;;;;;;;8214119;28;20067;-76
2021/09/01 05:39:06;;;;;;;4.45;2.10;;;;;;;;;;8242737;28;20535;-75
2021/09/01 05:43:12;;;;;;;2.03;1.58;;;;;;;;;;8243868;28;20570;-76
2021/09/01 05:47:20;;;;;;;2.45;1.67;;;;;;;;;;8228401;28;20353;-76
2021/09/01 05:51:29;;;;;;;1.55;1.20;;;;;;;;;;8229912;28;20049;-77
2021/09/01 05:55:44;;;;;;;2.33;1.58;;;;;;;;;;8212274;28;20482;-76
2021/09/01 06:00:01;;;;;;;6.00;2.08;;;;;;;;;;8211629;28;21151;-76
2021/09/01 06:04:17;;;;;;;3.03;1.75;;;;;;;;;;8212887;28;20588;-77
2021/09/01 06:08:25;;;;;;;3.03;1.60;;;;;;;;;;8210971;28;20061;-77
2021/09/01 06:12:31;;;;;;;2.50;1.40;;;;;;;;;;8212688;28;20391;-77
2021/09/01 06:16:36;;;;;;;3.10;1.80;;;;;;;;;;8211111;28;20380;-79
2021/09/01 06:20:41;;;;;;;2.83;1.30;;;;;;;;;;8211955;28;20387;-76
2021/09/01 06:24:46;;;;;;;2.47;1.40;;;;;;;;;;8195736;28;20045;-79
2021/09/01 06:28:51;;;;;;;2.55;1.88;;;;;;;;;;8211811;28;20368;-78
2021/09/01 06:32:56;;;;;;;2.78;1.38;;;;;;;;;;8210314;28;20375;-76
2021/09/01 06:37:02;;;;;;;2.50;1.25;;;;;;;;;;8227335;28;20484;-77
2021/09/01 06:41:07;;;;;;;3.38;1.55;;;;;;;;;;8209011;28;20476;-76
2021/09/01 06:45:13;;;;;;;1.90;1.30;;;;;;;;;;8243086;28;20362;-77
2021/09/01 06:49:19;;;;;;;1.23;0.90;;;;;;;;;;8226753;28;20505;-76
2021/09/01 06:53:24;;;;;;;3.58;1.55;;;;;;;;;;8209093;28;20537;-77
2021/09/01 06:57:30;;;;;;;1.60;1.10;;;;;;;;;;8228384;28;20468;-77
2021/09/01 07:01:35;;;;;;;3.30;1.77;;;;;;;;;;8227785;28;20467;-77
2021/09/01 07:05:41;;;;;;;3.15;1.75;;;;;;;;;;8226261;28;20350;-77
2021/09/01 07:09:46;;;;;;;2.05;1.35;;;;;;;;;;8226645;28;20368;-77
2021/09/01 07:13:51;;;;;;;2.05;1.00;;;;;;;;;;8207984;28;20467;-76
2021/09/01 07:17:56;;;;;;;1.83;1.20;;;;;;;;;;8209161;28;20490;-77
2021/09/01 07:22:01;;;;;;;2.03;1.35;;;;;;;;;;8209280;28;20371;-77
2021/09/01 07:26:09;;;;;;;3.13;1.95;;;;;;;;;;8226395;28;20509;-77
2021/09/01 07:30:15;;;;;;;2.42;1.85;;;;;;;;;;8210054;28;20375;-77
2021/09/01 07:34:20;;;;;;;1.80;1.52;;;;;;;;;;8207594;28;20448;-76
2021/09/01 07:38:25;;;;;;;4.65;2.20;;;;;;;;;;8225847;28;20041;-75
2021/09/01 07:42:30;;;;;;;1.77;1.50;;;;;;;;;;8225541;28;20467;-75
2021/09/01 07:46:36;;;;;;;2.22;1.52;;;;;;;;;;8225530;28;20403;-77
2021/09/01 07:50:43;;;;;;;3.10;2.08;;;;;;;;;;8240220;28;20460;-76
2021/09/01 07:54:48;;;;;;;3.55;2.05;;;;;;;;;;8226598;28;20041;-76
2021/09/01 07:58:58;;;;;;;3.10;1.90;;;;;;;;;;8225589;28;20484;-74
2021/09/01 08:03:03;;;;;;;4.63;2.90;;;;;;;;;;8224278;28;20523;-76
2021/09/01 08:07:08;;;;;;;4.90;3.20;;;;;;;;;;8225086;28;20067;-76
2021/09/01 08:11:13;;;;;;;5.40;3.30;;;;;;;;;;8224833;28;20368;-76
2021/09/01 08:15:19;;;;;;;6.15;3.60;;;;;;;;;;8206993;28;20368;-76
2021/09/01 08:19:24;;;;;;;6.18;3.90;;;;;;;;;;8224934;28;20464;-78
2021/09/01 08:23:29;;;;;;;5.53;3.78;;;;;;;;;;8224129;28;20364;-76
2021/09/01 08:27:34;;;;;;;7.97;4.70;;;;;;;;;;8240298;28;20387;-77
2021/09/01 08:31:39;;;;;;;8.15;5.43;;;;;;;;;;8224446;28;20496;-76
2021/09/01 08:35:44;;;;;;;9.23;5.20;;;;;;;;;;8223938;28;20391;-76
2021/09/01 08:39:50;;;;;;;8.90;5.25;;;;;;;;;;8223267;28;20064;-77
2021/09/01 08:44:00;;;;;;;6.75;4.78;;;;;;;;;;8224551;28;20466;-76
2021/09/01 08:48:06;;;;;;;8.18;4.88;;;;;;;;;;8227012;28;20402;-77
2021/09/01 08:52:11;;;;;;;9.40;6.28;;;;;;;;;;8225518;28;20080;-77
2021/09/01 08:56:16;;;;;;;8.55;5.80;;;;;;;;;;8224312;28;20375;-78
2021/09/01 09:00:21;;;;;;;8.27;5.13;;;;;;;;;;8222947;28;20476;-75
2021/09/01 09:04:34;;;;;;;8.27;5.88;;;;;;;;;;8223160;28;20053;-77
2021/09/01 09:08:39;;;;;;;11.75;6.30;;;;;;;;;;8207055;28;20490;-78
2021/09/01 09:12:57;;;;;;;12.43;5.82;;;;;;;;;;8223653;28;20491;-77
2021/09/01 09:17:20;;;;;;;11.13;6.13;;;;;;;;;;8238752;28;20407;-77
2021/09/01 09:21:25;;;;;;;8.68;5.15;;;;;;;;;;8224169;28;20483;-77
2021/09/01 09:25:31;;;;;;;10.07;5.65;;;;;;;;;;8221220;28;20376;-76
2021/09/01 09:29:38;;;;;;;8.55;5.53;;;;;;;;;;8225642;28;20472;-77
2021/09/01 09:33:43;;;;;;;11.02;5.65;;;;;;;;;;8164729;28;20542;-77
2021/09/01 09:38:05;;;;;;;8.88;6.00;;;;;;;;;;8236870;28;20049;-77
2021/09/01 09:42:13;;;;;;;12.23;5.55;;;;;;;;;;8229914;28;20464;-77
2021/09/01 09:46:18;;;;;;;12.55;5.60;;;;;;;;;;8225976;28;20075;-77
2021/09/01 09:50:24;;;;;;;7.47;4.88;;;;;;;;;;8207860;28;20486;-77
2021/09/01 09:54:29;;;;;;;11.77;5.80;;;;;;;;;;8222328;28;20376;-77
2021/09/01 09:58:38;;;;;;;7.72;5.15;;;;;;;;;;8217889;28;20464;-76
2021/09/01 10:02:45;;;;;;;7.95;4.88;;;;;;;;;;8243902;28;20510;-77
2021/09/01 10:06:51;;;;;;;7.53;5.30;;;;;;;;;;8216118;28;20397;-77
2021/09/01 10:10:57;;;;;;;10.18;4.82;;;;;;;;;;8233461;28;20372;-77
2021/09/01 10:15:03;;;;;;;9.88;4.90;;;;;;;;;;8235767;28;20379;-78
2021/09/01 10:19:19;;;;;;;7.15;4.43;;;;;;;;;;8218343;28;20064;-77
2021/09/01 10:23:57;;;;;;;7.18;4.18;;;;;;;;;;8215978;28;20356;-78
2021/09/01 10:28:22;;;;;;;5.75;3.92;;;;;;;;;;8199799;28;20509;-78
2021/09/01 10:32:31;;;;;;;6.03;3.63;;;;;;;;;;8233421;28;20482;-78
2021/09/01 10:36:40;;;;;;;5.70;3.13;;;;;;;;;;8230015;28;20488;-78
2021/09/01 10:41:04;;;;;;;5.45;3.28;;;;;;;;;;8230288;28;20379;-78
2021/09/01 10:45:32;;;;;;;7.50;3.92;;;;;;;;;;8230781;28;20553;-78
2021/09/01 10:49:55;;;;;;;;;;;;;;;;;;8082086;28;20510;-77
2021/09/01 11:00:17;;;;;;;4.68;2.50;;;;;;;;;;8241150;28;20352;-78
2021/09/01 11:04:22;;;;;;;6.28;2.90;;;;;;;;;;8198009;28;20478;-78
2021/09/01 11:08:27;;;;;;;5.85;3.38;;;;;;;;;;8237089;28;20368;-77
2021/09/01 11:12:35;;;;;;;6.75;3.10;;;;;;;;;;8239611;28;20337;-77
2021/09/01 11:16:40;;;;;;;7.82;3.20;;;;;;;;;;8216507;28;20363;-78
2021/09/01 11:20:54;;;;;;;6.50;3.47;;;;;;;;;;8234426;28;20057;-78
2021/09/01 11:25:10;;;;;;;5.88;3.35;;;;;;;;;;8247783;28;20370;-77
2021/09/01 11:29:15;;;;;;;4.68;2.88;;;;;;;;;;8232301;28;20049;-77
2021/09/01 11:33:20;;;;;;;6.65;2.95;;;;;;;;;;8216588;28;20486;-76
2021/09/01 11:37:25;;;;;;;4.75;2.65;;;;;;;;;;8233744;28;20395;-78
2021/09/01 11:41:30;;;;;;;7.13;2.85;;;;;;;;;;8227873;28;20492;-76
2021/09/01 11:45:47;;;;;;;5.63;2.88;;;;;;;;;;8227957;28;20075;-76
2021/09/01 11:49:53;;;;;;;5.80;3.20;;;;;;;;;;8211621;28;20448;-76
2021/09/01 11:53:59;;;;;;;6.38;3.03;;;;;;;;;;8211069;28;20483;-78
2021/09/01 11:58:25;;;;;;;6.32;2.70;;;;;;;;;;8230911;28;20387;-76
2021/09/01 12:02:32;;;;;;;5.55;2.33;;;;;;;;;;8226973;28;20379;-76
2021/09/01 12:06:46;;;;;;;6.15;3.00;;;;;;;;;;8242066;28;20459;-77
2021/09/01 12:10:51;;;;;;;8.48;3.20;;;;;;;;;;8225328;28;20076;-76
2021/09/01 12:15:13;;;;;;;4.93;2.75;;;;;;;;;;8192854;28;20384;-77
2021/09/01 12:19:20;;;;;;;8.77;2.45;;;;;;;;;;8209231;28;20444;-76
2021/09/01 12:23:26;;;;;;;4.90;2.55;;;;;;;;;;8229688;28;20049;-76
2021/09/01 12:27:34;;;;;;;13.65;4.80;;;;;;;;;;8241078;28;20060;-77
2021/09/01 12:31:52;;;;;;;5.03;2.75;;;;;;;;;;8193542;28;20468;-76
2021/09/01 12:36:01;;;;;;;5.95;2.72;;;;;;;;;;8227398;28;20075;-75
2021/09/01 12:40:09;;;;;;;6.35;2.78;;;;;;;;;;8225491;28;20471;-75
2021/09/01 12:44:16;;;;;;;4.25;2.10;;;;;;;;;;8208009;28;20372;-76
2021/09/01 12:48:35;;;;;;;7.47;2.50;;;;;;;;;;8223426;28;20460;-76
2021/09/01 12:52:40;;;;;;;5.40;2.60;;;;;;;;;;8225708;28;20099;-76
2021/09/01 12:56:45;;;;;;;5.50;2.47;;;;;;;;;;8190769;28;20391;-75
2021/09/01 13:00:51;;;;;;;5.70;3.35;;;;;;;;;;8174929;28;20423;-77
2021/09/01 13:04:58;;;;;;;5.60;2.70;;;;;;;;;;8191391;28;20371;-76
2021/09/01 13:09:03;;;;;;;4.40;2.88;;;;;;;;;;8206911;28;20411;-76
2021/09/01 13:13:09;;;;;;;8.07;3.50;;;;;;;;;;8225171;28;20045;-75
2021/09/01 13:17:14;;;;;;;7.43;3.30;;;;;;;;;;8186882;28;20468;-76
2021/09/01 13:21:19;;;;;;;5.15;3.00;;;;;;;;;;8172946;28;20131;-75
2021/09/01 13:25:26;;;;;;;5.65;3.38;;;;;;;;;;8224632;28;20061;-76
2021/09/01 13:29:31;;;;;;;8.52;3.50;;;;;;;;;;8215593;28;20376;-76
2021/09/01 13:33:36;;;;;;;7.68;3.45;;;;;;;;;;8230437;28;20060;-76
2021/09/01 13:37:43;;;;;;;5.65;3.17;;;;;;;;;;8231998;28;20441;-76
2021/09/01 13:41:48;;;;;;;10.73;3.28;;;;;;;;;;8196910;28;20476;-77
2021/09/01 13:45:53;;;;;;;6.75;2.95;;;;;;;;;;8231063;28;20399;-76
2021/09/01 13:49:58;;;;;;;7.20;3.40;;;;;;;;;;8232366;28;20463;-75
2021/09/01 13:54:04;;;;;;;7.28;3.78;;;;;;;;;;8231166;28;20395;-76
2021/09/01 13:58:09;;;;;;;6.88;3.45;;;;;;;;;;8231866;28;20498;-76
2021/09/01 14:02:18;;;;;;;7.75;4.10;;;;;;;;;;8229512;28;20080;-75
2021/09/01 14:06:23;;;;;;;7.13;3.40;;;;;;;;;;8243588;28;20383;-75
2021/09/01 14:10:28;;;;;;;5.38;2.95;;;;;;;;;;8227927;28;20385;-75
2021/09/01 14:14:32;;;;;;;11.63;4.07;;;;;;;;;;8229374;28;20034;-75
2021/09/01 14:18:36;;;;;;;8.55;3.40;;;;;;;;;;8230653;28;20359;-75
2021/09/01 14:22:42;;;;;;;5.43;2.85;;;;;;;;;;8230987;28;20476;-75
2021/09/01 14:26:47;;;;;;;9.73;2.83;;;;;;;;;;8231766;28;20080;-76
2021/09/01 14:30:52;;;;;;;5.15;2.83;;;;;;;;;;8229235;28;20472;-75
2021/09/01 14:35:12;;;;;;;21.17;5.72;;;;;;;;;;8228197;28;20053;-76
2021/09/01 14:39:16;;;;;;;5.50;3.17;;;;;;;;;;8210630;28;20353;-76
2021/09/01 14:43:23;;;;;;;16.40;5.10;;;;;;;;;;8226766;28;20049;-76
2021/09/01 14:47:27;;;;;;;11.27;3.03;;;;;;;;;;8227834;28;20376;-76
2021/09/01 14:51:31;;;;;;;8.18;3.17;;;;;;;;;;8203183;28;20460;-76
2021/09/01 14:55:36;;;;;;;8.85;4.82;;;;;;;;;;8224785;28;20067;-76
2021/09/01 14:59:41;;;;;;;6.72;3.05;;;;;;;;;;8227383;28;20371;-76
2021/09/01 15:03:46;;;;;;;3.85;2.53;;;;;;;;;;8230959;28;20472;-76
2021/09/01 15:14:00;;;;;;;21.17;12.30;;;;;;;;;;8271845;27;2339060;-76
2021/09/01 15:18:10;;;;;;;7.82;4.13;;;;;;;;;;8267963;28;20082;-76
2021/09/01 15:22:17;;;;;;;13.85;5.68;;;;;;;;;;8280475;28;20057;-76
2021/09/01 15:26:21;;;;;;;4.85;2.70;;;;;;;;;;8297705;28;20422;-76
2021/09/01 15:30:27;;;;;;;5.10;2.63;;;;;;;;;;8306877;28;20481;-76
2021/09/01 15:34:34;;;;;;;7.85;3.47;;;;;;;;;;8291818;28;20391;-76
2021/09/01 15:38:39;;;;;;;13.85;7.40;;;;;;;;;;8284269;28;20386;-75
2021/09/01 15:42:48;;;;;;;12.52;3.08;;;;;;;;;;8295884;28;20631;-76
2021/09/01 15:46:59;;;;;;;5.68;2.42;;;;;;;;;;8314333;28;20459;-76
2021/09/01 15:51:04;;;;;;;4.05;2.40;;;;;;;;;;8316974;28;20448;-75
2021/09/01 15:55:10;;;;;;;9.93;3.08;;;;;;;;;;8298912;28;20075;-75
2021/09/01 15:59:15;;;;;;;6.57;2.90;;;;;;;;;;8282494;28;20075;-76
2021/09/01 16:03:22;;;;;;;5.53;2.53;;;;;;;;;;8301903;28;20347;-77
2021/09/01 16:07:27;;;;;;;7.70;3.17;;;;;;;;;;8319340;28;20045;-77
2021/09/01 16:11:40;;;;;;;8.80;3.47;;;;;;;;;;8299895;28;20401;-76
2021/09/01 16:15:53;;;;;;;9.88;4.63;;;;;;;;;;8320427;28;20348;-76
2021/09/01 16:20:07;;;;;;;9.00;5.13;;;;;;;;;;8299596;28;20375;-76
2021/09/01 16:24:14;;;;;;;6.57;3.28;;;;;;;;;;8262916;28;20455;-76
2021/09/01 16:28:20;;;;;;;6.22;2.90;;;;;;;;;;8272774;28;20490;-76
2021/09/01 16:32:25;;;;;;;9.73;3.88;;;;;;;;;;8264113;28;20401;-76
2021/09/01 16:36:29;;;;;;;5.60;3.20;;;;;;;;;;8282527;28;20406;-75
2021/09/01 16:40:41;;;;;;;10.10;4.30;;;;;;;;;;8265804;28;20504;-76
2021/09/01 16:44:47;;;;;;;13.55;5.32;;;;;;;;;;8264669;28;20404;-76
2021/09/01 16:48:57;;;;;;;10.52;4.28;;;;;;;;;;8083612;28;20071;-76
2021/09/01 16:53:05;;;;;;;8.38;3.97;;;;;;;;;;8254959;28;20048;-76
2021/09/01 16:57:20;;;;;;;9.30;3.80;;;;;;;;;;8283670;28;20048;-76
2021/09/01 17:01:26;;;;;;;5.68;3.40;;;;;;;;;;8261322;28;20513;-76
2021/09/01 17:05:32;;;;;;;8.85;3.40;;;;;;;;;;8253590;28;20053;-76
2021/09/01 17:09:42;;;;;;;7.80;3.55;;;;;;;;;;8263009;28;20049;-76
2021/09/01 17:13:47;;;;;;;9.70;4.38;;;;;;;;;;8266730;28;20487;-76
2021/09/01 17:17:52;;;;;;;13.27;5.38;;;;;;;;;;8248439;28;20355;-76
2021/09/01 17:21:58;;;;;;;14.18;5.43;;;;;;;;;;8247223;28;20383;-76
2021/09/01 17:26:06;;;;;;;12.55;5.88;;;;;;;;;;8248916;28;20071;-76
2021/09/01 17:30:16;;;;;;;12.25;6.43;;;;;;;;;;8251089;28;20375;-76
2021/09/01 17:34:24;;;;;;;14.63;5.93;;;;;;;;;;8247721;28;20057;-76
2021/09/01 17:38:31;;;;;;;9.52;4.70;;;;;;;;;;8248636;28;20479;-76
2021/09/01 17:42:42;;;;;;;10.27;4.72;;;;;;;;;;8229748;28;20387;-77
2021/09/01 17:46:46;;;;;;;8.30;3.97;;;;;;;;;;8267240;28;20040;-76
2021/09/01 17:50:51;;;;;;;10.52;4.53;;;;;;;;;;8264468;28;20122;-76
2021/09/01 17:54:56;;;;;;;15.43;4.07;;;;;;;;;;8274963;28;20367;-76
2021/09/01 17:59:01;;;;;;;11.75;4.60;;;;;;;;;;8219897;28;20468;-76
2021/09/01 18:03:06;;;;;;;12.63;5.25;;;;;;;;;;8160221;28;20499;-76
2021/09/01 18:07:13;;;;;;;14.73;5.15;;;;;;;;;;8211772;28;20381;-77
2021/09/01 18:11:19;;;;;;;12.98;5.18;;;;;;;;;;8236423;28;20357;-76
2021/09/01 18:15:23;;;;;;;10.75;4.70;;;;;;;;;;8216162;28;20101;-76
2021/09/01 18:19:28;;;;;;;9.13;4.47;;;;;;;;;;8234504;28;20460;-76
2021/09/01 18:23:34;;;;;;;11.02;4.93;;;;;;;;;;8231671;28;20502;-77
2021/09/01 18:27:40;;;;;;;13.02;5.78;;;;;;;;;;8214560;28;20361;-76
2021/09/01 18:31:45;;;;;;;14.23;4.70;;;;;;;;;;8232107;28;20385;-76
2021/09/01 18:35:50;;;;;;;20.48;8.82;;;;;;;;;;8219718;28;20456;-76
2021/09/01 18:39:56;;;;;;;27.80;9.35;;;;;;;;;;8177411;28;20470;-76
2021/09/01 18:44:00;;;;;;;10.68;5.70;;;;;;;;;;8249481;28;20412;-76
2021/09/01 18:48:05;;;;;;;13.70;5.95;;;;;;;;;;8263636;28;20460;-76
2021/09/01 18:52:12;;;;;;;17.75;5.63;;;;;;;;;;8242781;28;20363;-76
2021/09/01 18:56:18;;;;;;;11.85;6.45;;;;;;;;;;8238289;28;20463;-76
2021/09/01 19:00:22;;;;;;;13.77;7.43;;;;;;;;;;8230764;28;20053;-77
2021/09/01 19:04:29;;;;;;;15.40;7.53;;;;;;;;;;8236003;28;20375;-76
2021/09/01 19:08:50;;;;;;;14.05;6.93;;;;;;;;;;8247465;28;20044;-76
2021/09/01 19:12:56;;;;;;;20.35;6.82;;;;;;;;;;8229358;28;20477;-76
2021/09/01 19:17:01;;;;;;;18.95;7.10;;;;;;;;;;8226432;28;20042;-76
2021/09/01 19:21:07;;;;;;;11.63;7.35;;;;;;;;;;8221429;28;20493;-76
2021/09/01 19:25:19;;;;;;;17.30;8.43;;;;;;;;;;8196458;28;20481;-77
2021/09/01 19:29:26;;;;;;;19.13;8.55;;;;;;;;;;8179009;28;20385;-76
2021/09/01 19:34:25;;;;;;;15.30;7.93;;;;;;;;;;8202957;28;20345;-76
2021/09/01 19:38:32;;;;;;;16.90;8.43;;;;;;;;;;8193209;28;20350;-76
2021/09/01 19:42:41;;;;;;;20.13;8.38;;;;;;;;;;8194914;28;20404;-76
2021/09/01 19:46:48;;;;;;;18.00;7.90;;;;;;;;;;8208753;28;20057;-76
2021/09/01 19:51:07;;;;;;;12.75;7.50;;;;;;;;;;8178503;28;20131;-76
2021/09/01 19:55:13;;;;;;;27.23;9.25;;;;;;;;;;8210519;28;20058;-76
2021/09/01 20:05:00;;;;;;;11.93;6.13;;;;;;;;;;8195010;28;20468;-76
2021/09/01 20:09:05;;;;;;;13.73;5.18;;;;;;;;;;8207845;28;20446;-76
2021/09/01 20:13:11;;;;;;;10.98;5.40;;;;;;;;;;8225750;28;20075;-76
2021/09/01 20:17:16;;;;;;;10.90;5.53;;;;;;;;;;8216519;28;20393;-76
2021/09/01 20:21:22;;;;;;;10.90;5.20;;;;;;;;;;8216266;28;20340;-76
2021/09/01 20:25:27;;;;;;;9.00;4.43;;;;;;;;;;8218167;28;20467;-76
2021/09/01 20:29:33;;;;;;;12.60;5.25;;;;;;;;;;8263052;28;20048;-76
2021/09/01 20:33:42;;;;;;;10.63;4.28;;;;;;;;;;8247132;28;20052;-76
2021/09/01 20:37:47;;;;;;;13.68;5.38;;;;;;;;;;8254363;28;20519;-76
2021/09/01 20:41:57;;;;;;;69.90;25.40;;;;;;;;;;8247515;28;20453;-76
2021/09/01 20:46:05;;;;;;;92.32;34.42;;;;;;;;;;8245623;28;20355;-76
2021/09/01 20:50:11;;;;;;;65.72;28.70;;;;;;;;;;8249622;28;20341;-76
2021/09/01 20:54:17;;;;;;;42.83;17.38;;;;;;;;;;8266452;28;20376;-76
2021/09/01 20:58:25;;;;;;;28.98;12.77;;;;;;;;;;8235568;28;20460;-76
2021/09/01 21:02:31;;;;;;;17.88;7.18;;;;;;;;;;8243223;28;20368;-76
2021/09/01 21:06:38;;;;;;;11.63;5.30;;;;;;;;;;8246401;28;20375;-76
2021/09/01 21:10:44;;;;;;;13.45;4.72;;;;;;;;;;8245950;28;20488;-76
2021/09/01 21:14:50;;;;;;;10.20;5.63;;;;;;;;;;8266422;28;20476;-76
2021/09/01 21:19:01;;;;;;;11.50;4.85;;;;;;;;;;8266328;28;20348;-76
2021/09/01 21:23:08;;;;;;;14.52;6.65;;;;;;;;;;8244658;28;20088;-76
2021/09/01 21:27:14;;;;;;;17.85;6.68;;;;;;;;;;8262107;28;20044;-76
2021/09/01 21:31:21;;;;;;;12.68;5.18;;;;;;;;;;8266041;28;20356;-76
2021/09/01 21:35:25;;;;;;;11.88;5.40;;;;;;;;;;8263867;28;20445;-76
2021/09/01 21:39:29;;;;;;;11.32;4.47;;;;;;;;;;8260875;28;20380;-76
2021/09/01 21:43:37;;;;;;;9.02;3.97;;;;;;;;;;8267008;28;20352;-77
2021/09/01 21:47:42;;;;;;;8.80;4.18;;;;;;;;;;8267763;28;20478;-76
2021/09/01 21:51:48;;;;;;;7.05;3.65;;;;;;;;;;8265097;28;20067;-76
2021/09/01 21:55:54;;;;;;;6.22;3.10;;;;;;;;;;8265271;28;20067;-76
2021/09/01 21:59:59;;;;;;;9.65;4.13;;;;;;;;;;8263709;28;20049;-76
2021/09/01 22:04:07;;;;;;;6.07;3.23;;;;;;;;;;8262452;28;20353;-76
2021/09/01 22:08:13;;;;;;;11.43;3.70;;;;;;;;;;8260184;28;20049;-76
2021/09/01 22:12:18;;;;;;;9.60;3.35;;;;;;;;;;8260367;28;20467;-76
2021/09/01 22:16:22;;;;;;;7.65;3.95;;;;;;;;;;8263191;28;20049;-76
2021/09/01 22:20:27;;;;;;;10.82;3.72;;;;;;;;;;8244503;28;20048;-76
2021/09/01 22:24:31;;;;;;;8.07;3.40;;;;;;;;;;8263777;28;20456;-76
2021/09/01 22:28:35;;;;;;;10.18;3.90;;;;;;;;;;8263764;28;20368;-76
2021/09/01 22:32:40;;;;;;;9.27;4.85;;;;;;;;;;8262304;28;20496;-76
2021/09/01 22:36:44;;;;;;;6.72;3.75;;;;;;;;;;8244825;28;20383;-76
2021/09/01 22:40:50;;;;;;;9.32;4.63;;;;;;;;;;8245375;28;20063;-76
2021/09/01 22:44:54;;;;;;;9.65;3.28;;;;;;;;;;8264347;28;20467;-76
2021/09/01 22:49:01;;;;;;;11.70;3.53;;;;;;;;;;8264459;28;20357;-76
2021/09/01 22:53:06;;;;;;;6.63;3.70;;;;;;;;;;8261812;28;20418;-76
2021/09/01 22:57:11;;;;;;;7.15;3.40;;;;;;;;;;8264906;28;20071;-76
2021/09/01 23:01:16;;;;;;;8.38;4.20;;;;;;;;;;8248977;28;20045;-77
2021/09/01 23:05:20;;;;;;;15.48;4.25;;;;;;;;;;8261693;28;20430;-77
2021/09/01 23:09:25;;;;;;;11.18;3.33;;;;;;;;;;8266850;28;20403;-77
2021/09/01 23:13:29;;;;;;;4.85;3.15;;;;;;;;;;8227667;28;20492;-76
2021/09/01 23:17:35;;;;;;;10.32;4.20;;;;;;;;;;8232065;28;20068;-76
2021/09/01 23:21:40;;;;;;;14.70;4.72;;;;;;;;;;8230063;28;20034;-76
2021/09/01 23:25:45;;;;;;;19.15;5.40;;;;;;;;;;8243475;28;20054;-77
2021/09/01 23:29:50;;;;;;;11.13;4.78;;;;;;;;;;8228721;28;20080;-76
2021/09/01 23:33:56;;;;;;;11.18;4.53;;;;;;;;;;8234062;28;20365;-76
2021/09/01 23:38:01;;;;;;;7.15;4.05;;;;;;;;;;8233039;28;20049;-76
2021/09/01 23:42:07;;;;;;;10.90;4.07;;;;;;;;;;8233841;28;20477;-76
2021/09/01 23:46:14;;;;;;;11.65;3.95;;;;;;;;;;8246869;28;20384;-76
2021/09/01 23:50:19;;;;;;;7.75;3.33;;;;;;;;;;8232384;28;20076;-76
2021/09/01 23:54:24;;;;;;;5.35;3.00;;;;;;;;;;8231530;28;20057;-77
2021/09/01 23:58:29;;;;;;;8.65;4.22;;;;;;;;;;8234453;28;20368;-76
